Time;durP1;ratioP1;P1;durP2;ratioP2;P2;SDS_P1;SDS_P2;PMS_P1;PMS_P2;Temp;Humidity;BMP_temperature;BMP_pressure;BME280_temperature;BME280_humidity;BME280_pressure;Samples;Min_cycle;Max_cycle;Signal;HPM_P1;HPM_P2
2023/09/14 00:00:19;;;;;;;1.13;1.00;;;;;;;21.78;49.45;101947.16;5054444;28;20033;-62
2023/09/14 00:02:44;;;;;;;7.03;1.25;;;;;;;21.77;49.12;101953.66;5055733;28;20107;-61
2023/09/14 00:05:10;;;;;;;1.13;0.77;;;;;;;21.76;49.46;101952.81;5054402;28;20554;-61
2023/09/14 00:07:35;;;;;;;1.67;1.10;;;;;;;21.73;48.94;101955.03;5055573;28;20493;-63
2023/09/14 00:10:00;;;;;;;1.48;0.60;;;;;;;21.72;49.19;101953.34;5055508;28;20029;-61
2023/09/14 00:12:26;;;;;;;3.17;0.80;;;;;;;21.69;48.86;101953.69;5055512;28;20041;-61
2023/09/14 00:14:51;;;;;;;4.00;0.90;;;;;;;21.67;49.63;101958.44;5055421;28;20033;-63
2023/09/14 00:17:17;;;;;;;8.40;1.17;;;;;;;21.64;49.02;101946.00;5054029;28;20072;-62
2023/09/14 00:19:42;;;;;;;1.00;0.90;;;;;;;21.63;49.40;101959.84;5055405;28;20025;-63
2023/09/14 00:22:08;;;;;;;1.85;0.88;;;;;;;21.58;49.23;101943.16;5055324;28;20560;-62
2023/09/14 00:24:34;;;;;;;3.92;1.17;;;;;;;21.59;49.62;101953.00;5054158;28;20401;-61
2023/09/14 00:26:59;;;;;;;1.45;0.75;;;;;;;21.56;48.99;101947.91;5053904;28;20029;-61
2023/09/14 00:29:25;;;;;;;2.25;0.98;;;;;;;21.51;49.57;101945.69;5055173;28;20056;-61
2023/09/14 00:31:50;;;;;;;1.13;0.98;;;;;;;21.50;49.69;101943.16;5053889;28;20052;-62
2023/09/14 00:34:15;;;;;;;2.13;0.80;;;;;;;21.47;49.23;101945.19;5055117;28;20044;-62
2023/09/14 00:36:41;;;;;;;3.95;0.98;;;;;;;21.42;49.08;101942.13;5053786;28;20033;-62
2023/09/14 00:39:09;;;;;;;1.50;0.70;;;;;;;21.42;49.53;101947.59;5037051;28;20040;-62
2023/09/14 00:41:34;;;;;;;1.98;0.80;;;;;;;21.39;49.14;101947.06;5053791;28;20033;-62
2023/09/14 00:43:59;;;;;;;3.67;0.88;;;;;;;21.37;49.44;101947.25;5054883;28;20139;-63
2023/09/14 00:46:25;;;;;;;1.08;0.80;;;;;;;21.32;48.87;101944.19;5036852;28;20040;-63
2023/09/14 00:48:50;;;;;;;1.10;0.73;;;;;;;21.33;49.75;101951.34;5036247;28;20045;-63
2023/09/14 00:51:16;;;;;;;2.60;0.88;;;;;;;21.31;49.67;101950.66;5053606;28;20041;-63
2023/09/14 00:53:42;;;;;;;6.97;1.08;;;;;;;21.29;50.00;101954.59;5053577;28;20463;-63
2023/09/14 00:56:10;;;;;;;6.97;1.10;;;;;;;21.27;49.34;101954.75;5053433;28;20113;-63
2023/09/14 00:58:36;;;;;;;4.15;1.05;;;;;;;21.27;49.84;101952.03;5053466;28;20040;-62
2023/09/14 01:01:03;;;;;;;1.33;1.20;;;;;;;21.25;49.17;101945.03;5053275;28;20029;-61
2023/09/14 01:03:28;;;;;;;1.17;0.90;;;;;;;21.23;49.56;101950.69;5054636;28;20433;-61
2023/09/14 01:05:54;;;;;;;1.35;0.70;;;;;;;21.20;49.01;101956.47;5053444;28;20025;-61
2023/09/14 01:08:20;;;;;;;9.00;0.93;;;;;;;21.17;49.42;101948.63;5053568;28;20025;-61
2023/09/14 01:10:45;;;;;;;2.15;1.00;;;;;;;21.16;49.53;101954.25;5053008;28;20032;-63
2023/09/14 01:13:16;;;;;;;2.45;0.88;;;;;;;21.16;49.20;101957.00;5054319;28;20120;-63
2023/09/14 01:15:48;;;;;;;3.83;0.75;;;;;;;21.14;50.07;101951.69;5052953;28;20493;-61
2023/09/14 01:18:24;;;;;;;1.60;0.63;;;;;;;21.12;49.20;101961.06;5053256;28;20033;-61
2023/09/14 01:21:04;;;;;;;1.77;0.80;;;;;;;21.09;49.97;101942.31;5052717;28;20508;-61
2023/09/14 01:24:07;;;;;;;10.73;1.05;;;;;;;21.06;49.31;101956.25;5054363;28;20047;-62
2023/09/14 01:26:33;;;;;;;2.10;0.90;;;;;;;21.03;50.06;101957.44;5023860;28;20037;-61
2023/09/14 01:29:00;;;;;;;4.13;1.08;;;;;;;21.03;49.71;101962.91;5052772;28;20056;-62
2023/09/14 01:31:26;;;;;;;3.55;0.95;;;;;;;20.99;50.24;101956.09;5052918;28;20044;-61
2023/09/14 01:33:51;;;;;;;2.28;1.17;;;;;;;20.99;49.55;101958.81;5052587;28;20029;-61
2023/09/14 01:36:25;;;;;;;2.58;1.17;;;;;;;20.97;49.08;101958.13;5053993;28;20048;-62
2023/09/14 01:38:53;;;;;;;2.28;0.90;;;;;;;20.94;49.35;101955.72;5053927;28;20041;-62
2023/09/14 01:41:18;;;;;;;2.25;1.17;;;;;;;20.90;50.24;101957.09;5052782;28;20103;-62
2023/09/14 01:43:48;;;;;;;2.03;1.05;;;;;;;20.87;49.00;101963.75;5035865;28;20032;-62
2023/09/14 01:46:13;;;;;;;5.50;1.13;;;;;;;20.89;49.33;101961.69;5052584;28;20053;-62
2023/09/14 01:48:39;;;;;;;2.22;1.15;;;;;;;20.87;49.65;101971.06;5052263;28;20067;-61
2023/09/14 01:51:04;;;;;;;0.63;0.63;;;;;;;20.86;49.85;101966.63;5053767;28;20029;-62
2023/09/14 01:53:30;;;;;;;1.02;0.95;;;;;;;20.84;49.27;101964.09;5052435;28;20496;-62
2023/09/14 01:55:55;;;;;;;1.40;0.95;;;;;;;20.80;49.68;101967.28;5052288;28;20100;-61
2023/09/14 01:58:21;;;;;;;0.80;0.80;;;;;;;20.80;49.75;101968.16;5053360;28;20048;-62
2023/09/14 02:00:47;;;;;;;1.95;0.52;;;;;;;20.77;49.48;101973.09;5052380;28;20123;-62
2023/09/14 02:03:12;;;;;;;3.00;0.70;;;;;;;20.76;49.39;101974.09;5053296;28;20119;-62
2023/09/14 02:05:39;;;;;;;1.30;0.40;;;;;;;20.72;49.92;101970.84;5051997;28;20032;-62
2023/09/14 02:08:05;;;;;;;3.25;0.75;;;;;;;20.71;49.19;101976.47;5052139;28;20029;-62
2023/09/14 02:10:30;;;;;;;1.33;0.90;;;;;;;20.70;49.56;101961.16;5052011;28;20519;-62
2023/09/14 02:12:56;;;;;;;3.60;1.98;;;;;;;20.68;49.51;101968.66;5064428;28;20036;-65
2023/09/14 02:15:22;;;;;;;9.02;1.27;;;;;;;20.67;49.52;101972.38;5071907;28;20057;-62
2023/09/14 02:17:47;;;;;;;2.47;1.15;;;;;;;20.65;49.93;101967.13;5073111;28;20083;-62
2023/09/14 02:20:12;;;;;;;2.70;1.00;;;;;;;20.64;50.00;101967.25;5071975;28;20048;-62
2023/09/14 02:22:38;;;;;;;3.42;1.15;;;;;;;20.61;49.85;101962.16;5073071;28;20033;-62
2023/09/14 02:25:04;;;;;;;5.25;2.20;;;;;;;20.57;49.53;101963.50;5071754;28;20078;-62
2023/09/14 02:27:30;;;;;;;1.23;0.75;;;;;;;20.56;49.34;101959.06;5071840;28;20036;-62
2023/09/14 02:29:55;;;;;;;1.48;0.90;;;;;;;20.54;50.07;101963.84;5072816;28;20407;-62
2023/09/14 02:32:21;;;;;;;1.92;0.95;;;;;;;20.51;49.19;101958.72;5072950;28;20126;-61
2023/09/14 02:34:48;;;;;;;3.13;1.05;;;;;;;20.51;49.87;101959.59;5071735;28;20094;-62
2023/09/14 02:37:14;;;;;;;1.52;1.00;;;;;;;20.49;49.94;101963.50;5071748;28;20028;-62
2023/09/14 02:39:39;;;;;;;5.10;1.25;;;;;;;20.48;50.20;101961.78;5072872;28;20036;-62
2023/09/14 02:42:04;;;;;;;2.30;1.00;;;;;;;20.44;49.68;101960.41;5071879;28;20032;-62
2023/09/14 02:44:30;;;;;;;2.53;1.20;;;;;;;20.41;50.15;101961.59;5072863;28;20089;-62
2023/09/14 02:46:56;;;;;;;2.78;0.70;;;;;;;20.42;49.52;101963.28;5072852;28;20038;-62
2023/09/14 02:49:21;;;;;;;1.30;0.85;;;;;;;20.41;49.88;101960.75;5072690;28;20540;-62
2023/09/14 02:51:47;;;;;;;1.08;0.90;;;;;;;20.39;49.69;101957.31;5071437;28;20454;-62
2023/09/14 02:54:13;;;;;;;4.30;0.70;;;;;;;20.38;49.98;101961.09;5071499;28;20028;-62
2023/09/14 02:56:39;;;;;;;2.45;1.40;;;;;;;20.35;49.64;101953.25;5071443;28;20516;-61
2023/09/14 02:59:05;;;;;;;2.25;1.27;;;;;;;20.35;50.07;101955.97;5054997;28;20032;-62
2023/09/14 03:01:31;;;;;;;1.77;1.13;;;;;;;20.33;50.23;101961.56;5071562;28;20404;-62
2023/09/14 03:03:57;;;;;;;2.50;1.33;;;;;;;20.31;49.82;101950.84;5054906;28;20120;-62
2023/09/14 03:06:22;;;;;;;5.25;1.77;;;;;;;20.30;49.42;101959.16;5072550;28;20111;-62
2023/09/14 03:08:48;;;;;;;2.10;1.60;;;;;;;20.29;50.09;101958.34;5072544;28;20028;-62
2023/09/14 03:11:13;;;;;;;3.53;2.05;;;;;;;20.26;49.99;101953.22;5073327;28;20032;-62
2023/09/14 03:13:39;;;;;;;3.75;1.58;;;;;;;20.25;49.67;101962.38;5076636;28;20063;-62
2023/09/14 03:16:05;;;;;;;4.63;1.27;;;;;;;20.22;50.29;101959.09;5076776;28;20048;-62
2023/09/14 03:18:31;;;;;;;2.83;1.58;;;;;;;20.20;50.18;101955.69;5076495;28;20037;-62
2023/09/14 03:20:56;;;;;;;3.92;1.70;;;;;;;20.20;50.24;101959.28;5076461;28;20033;-62
2023/09/14 03:23:22;;;;;;;4.55;1.60;;;;;;;20.19;50.02;101962.16;5075281;28;20037;-62
2023/09/14 03:25:49;;;;;;;7.90;1.70;;;;;;;20.18;49.89;101961.28;5076673;28;20399;-62
2023/09/14 03:28:15;;;;;;;6.60;1.73;;;;;;;20.16;49.77;101959.75;5076473;28;20036;-61
2023/09/14 03:30:40;;;;;;;3.42;1.83;;;;;;;20.16;50.37;101954.31;5075348;28;20036;-66
2023/09/14 03:33:06;;;;;;;2.35;1.35;;;;;;;20.14;50.11;101954.50;5075341;28;20090;-61
2023/09/14 03:35:32;;;;;;;7.10;2.63;;;;;;;20.13;49.63;101957.34;5075185;28;20102;-62
2023/09/14 03:37:57;;;;;;;1.75;0.95;;;;;;;20.09;49.62;101951.41;5076324;28;20028;-62
2023/09/14 03:40:23;;;;;;;3.00;1.83;;;;;;;20.08;49.35;101960.59;5075166;28;20049;-62
2023/09/14 03:42:49;;;;;;;2.50;1.17;;;;;;;20.06;50.03;101968.06;5078092;28;20024;-62
2023/09/14 03:45:14;;;;;;;4.63;1.20;;;;;;;20.02;50.44;101955.78;5077048;28;20089;-61
2023/09/14 03:47:40;;;;;;;2.38;1.80;;;;;;;20.02;50.18;101963.94;5077442;28;20497;-62
2023/09/14 03:50:06;;;;;;;2.80;1.50;;;;;;;19.99;50.10;101956.09;5060350;28;20437;-61
2023/09/14 03:52:31;;;;;;;2.85;1.52;;;;;;;20.00;50.13;101956.97;5078236;28;20511;-62
2023/09/14 03:54:56;;;;;;;2.67;0.93;;;;;;;19.98;49.98;101959.00;5076100;28;20056;-62
2023/09/14 03:57:24;;;;;;;3.75;1.25;;;;;;;19.97;49.54;101963.59;5074888;28;20557;-61
2023/09/14 03:59:50;;;;;;;2.00;1.30;;;;;;;19.93;50.27;101959.50;5076296;28;20029;-62
2023/09/14 04:02:15;;;;;;;1.23;1.05;;;;;;;19.94;50.11;101957.59;5074408;28;20132;-62
2023/09/14 04:04:41;;;;;;;2.42;1.27;;;;;;;19.91;49.80;101953.34;5074406;28;20468;-62
2023/09/14 04:07:07;;;;;;;1.67;1.05;;;;;;;19.90;49.86;101954.38;5075598;28;20042;-62
2023/09/14 04:09:33;;;;;;;4.07;1.20;;;;;;;19.87;49.66;101957.44;5074513;28;20119;-62
2023/09/14 04:11:58;;;;;;;1.58;1.08;;;;;;;19.86;50.15;101966.59;5074240;28;20031;-62
2023/09/14 04:14:23;;;;;;;1.88;1.38;;;;;;;19.85;50.26;101958.59;5074298;28;20033;-62
2023/09/14 04:16:51;;;;;;;2.28;1.30;;;;;;;19.82;49.88;101959.75;5074271;28;20044;-62
2023/09/14 04:19:16;;;;;;;2.35;1.40;;;;;;;19.82;50.01;101959.75;5074367;28;20033;-62
2023/09/14 04:21:43;;;;;;;1.58;1.10;;;;;;;19.82;50.07;101953.50;5073636;28;20047;-65
2023/09/14 04:24:11;;;;;;;1.50;1.02;;;;;;;19.78;50.25;101952.94;5074133;28;20051;-62
2023/09/14 04:26:38;;;;;;;1.80;1.20;;;;;;;19.76;49.74;101949.56;5074394;28;20021;-62
2023/09/14 04:29:03;;;;;;;6.70;2.72;;;;;;;19.80;50.02;101961.78;5075156;28;20044;-62
2023/09/14 04:31:29;;;;;;;2.92;1.73;;;;;;;19.79;50.54;101949.22;5057128;28;20059;-61
2023/09/14 04:33:54;;;;;;;8.10;2.25;;;;;;;19.79;50.10;101954.66;5074099;28;20044;-62
2023/09/14 04:36:20;;;;;;;8.00;1.73;;;;;;;19.78;50.01;101952.94;5075296;28;20020;-61
2023/09/14 04:38:45;;;;;;;2.45;1.40;;;;;;;19.76;49.92;101949.56;5075011;28;20033;-62
2023/09/14 04:41:10;;;;;;;1.83;1.27;;;;;;;19.77;49.66;101952.09;5056937;28;20056;-62
2023/09/14 04:43:36;;;;;;;3.10;1.40;;;;;;;19.77;50.57;101951.22;5073971;28;20038;-62
2023/09/14 04:46:04;;;;;;;1.80;1.50;;;;;;;19.78;50.14;101955.66;5075121;28;20096;-61
2023/09/14 04:48:30;;;;;;;1.48;1.27;;;;;;;19.76;50.25;101953.09;5075339;28;20024;-62
2023/09/14 04:50:56;;;;;;;4.30;1.10;;;;;;;19.74;49.56;101951.56;5057214;28;20476;-62
2023/09/14 04:53:23;;;;;;;2.65;1.27;;;;;;;19.73;49.74;101956.16;5073660;28;20016;-62
2023/09/14 04:55:49;;;;;;;3.55;1.67;;;;;;;19.73;49.96;101960.75;5075131;28;20029;-62
2023/09/14 04:58:15;;;;;;;3.22;1.38;;;;;;;19.69;49.80;101953.91;5073745;28;20037;-61
2023/09/14 05:00:40;;;;;;;1.98;1.20;;;;;;;19.69;49.97;101962.06;5040996;28;20101;-62
2023/09/14 05:03:06;;;;;;;1.77;1.20;;;;;;;19.66;50.08;101962.38;5075075;28;20027;-61
2023/09/14 05:05:32;;;;;;;4.72;2.35;;;;;;;19.65;50.24;101963.41;5075537;28;20051;-62
2023/09/14 05:07:58;;;;;;;2.10;1.60;;;;;;;19.63;49.87;101959.97;5074737;28;20028;-62
2023/09/14 05:10:25;;;;;;;2.60;1.58;;;;;;;19.63;49.96;101965.41;5073440;28;20094;-61
2023/09/14 05:12:50;;;;;;;3.42;2.30;;;;;;;19.62;50.04;101966.44;5074936;28;20119;-62
2023/09/14 05:15:16;;;;;;;4.93;2.10;;;;;;;19.63;50.09;101959.97;5073521;28;20567;-62
2023/09/14 05:17:41;;;;;;;2.90;1.98;;;;;;;19.60;49.66;101966.59;5073662;28;20040;-61
2023/09/14 05:20:08;;;;;;;3.25;1.75;;;;;;;19.60;49.99;101974.75;5074564;28;20578;-62
2023/09/14 05:22:34;;;;;;;2.85;1.85;;;;;;;19.60;49.64;101971.19;5074658;28;20024;-62
2023/09/14 05:24:59;;;;;;;8.75;1.85;;;;;;;19.60;50.48;101977.47;5073126;28;20101;-62
2023/09/14 05:27:26;;;;;;;3.80;1.58;;;;;;;19.60;50.46;101971.19;5073160;28;20044;-62
2023/09/14 05:29:51;;;;;;;3.83;1.73;;;;;;;19.58;49.51;101968.63;5074195;28;20037;-62
2023/09/14 05:32:17;;;;;;;3.55;1.95;;;;;;;19.58;49.90;101976.78;5074088;28;20024;-61
2023/09/14 05:34:42;;;;;;;2.42;1.50;;;;;;;19.61;50.49;101981.03;5072314;28;20025;-62
2023/09/14 05:37:08;;;;;;;2.63;1.10;;;;;;;19.64;50.14;101980.72;5072597;28;20043;-62
2023/09/14 05:39:33;;;;;;;5.10;1.85;;;;;;;19.68;50.47;101987.56;5072764;28;20492;-62
2023/09/14 05:41:59;;;;;;;5.57;1.73;;;;;;;19.67;50.17;101975.84;5072644;28;20029;-61
2023/09/14 05:44:24;;;;;;;3.05;1.63;;;;;;;19.75;50.25;101991.34;5073927;28;20029;-62
2023/09/14 05:46:49;;;;;;;4.75;1.67;;;;;;;19.75;50.00;101975.88;5072645;28;20388;-62
2023/09/14 05:49:15;;;;;;;4.68;1.48;;;;;;;19.83;49.47;101983.22;5074071;28;20384;-62
2023/09/14 05:51:40;;;;;;;4.13;1.83;;;;;;;19.92;50.00;101981.41;5072836;28;20035;-62
2023/09/14 05:54:06;;;;;;;2.95;1.60;;;;;;;20.00;49.93;101986.88;5072752;28;20690;-62
2023/09/14 05:56:32;;;;;;;8.13;2.40;;;;;;;20.08;50.27;101993.22;5073530;28;20094;-62
2023/09/14 05:58:57;;;;;;;3.97;1.98;;;;;;;20.19;49.74;102003.81;5072646;28;20024;-62
2023/09/14 06:01:23;;;;;;;4.75;2.33;;;;;;;20.29;49.89;101995.56;5073655;28;20111;-62
2023/09/14 06:03:48;;;;;;;7.28;2.50;;;;;;;20.39;49.31;101995.44;5055266;28;20036;-62
2023/09/14 06:06:15;;;;;;;5.50;2.20;;;;;;;20.49;49.40;102001.59;5055444;28;20036;-61
2023/09/14 06:08:41;;;;;;;4.60;2.30;;;;;;;20.58;49.36;102001.44;5073479;28;20039;-62
2023/09/14 06:11:06;;;;;;;4.40;2.10;;;;;;;20.71;49.58;102009.16;5072012;28;20128;-62
2023/09/14 06:13:32;;;;;;;4.47;1.70;;;;;;;20.83;49.98;102005.09;5073247;28;20453;-62
2023/09/14 06:15:57;;;;;;;5.00;1.80;;;;;;;20.94;49.55;102007.50;5071760;28;20060;-62
2023/09/14 06:18:22;;;;;;;6.57;1.77;;;;;;;21.07;49.55;102007.91;5071985;28;20047;-62
2023/09/14 06:20:48;;;;;;;2.42;1.60;;;;;;;21.20;49.76;102013.69;5072414;28;20496;-61
2023/09/14 06:23:14;;;;;;;8.20;2.00;;;;;;;21.36;49.74;102010.97;5071869;28;20055;-61
2023/09/14 06:25:39;;;;;;;3.03;1.70;;;;;;;21.53;49.73;102014.53;5073148;28;20059;-61
2023/09/14 06:28:05;;;;;;;5.25;2.17;;;;;;;21.70;49.95;102018.09;5055266;28;20030;-62
2023/09/14 06:30:30;;;;;;;6.55;2.15;;;;;;;21.84;49.06;102003.75;5073646;28;20052;-62
2023/09/14 06:32:55;;;;;;;20.23;2.85;;;;;;;22.02;49.72;102009.91;5072253;28;20029;-62
2023/09/14 06:35:21;;;;;;;5.47;1.75;;;;;;;22.18;49.90;102004.38;5072378;28;20075;-61
2023/09/14 06:37:46;;;;;;;3.40;1.90;;;;;;;22.34;49.20;101998.84;5074033;28;20042;-66
2023/09/14 06:40:12;;;;;;;5.15;2.17;;;;;;;22.55;48.93;102001.00;5073025;28;20035;-61
2023/09/14 06:42:37;;;;;;;3.13;2.10;;;;;;;22.74;48.99;102011.50;5073060;28;20098;-61
2023/09/14 06:45:03;;;;;;;3.13;1.65;;;;;;;22.91;48.91;102007.63;5072306;28;20039;-61
2023/09/14 06:47:29;;;;;;;3.45;2.10;;;;;;;23.08;48.28;102008.38;5071629;28;20056;-62
2023/09/14 06:49:54;;;;;;;3.25;2.50;;;;;;;23.25;48.70;102007.22;5071791;28;20048;-62
2023/09/14 06:52:19;;;;;;;2.92;1.95;;;;;;;23.42;48.22;102000.59;5072906;28;20044;-62
2023/09/14 06:54:46;;;;;;;4.05;2.00;;;;;;;23.60;48.21;102003.84;5072619;28;20032;-62
2023/09/14 06:57:11;;;;;;;4.38;2.22;;;;;;;23.76;48.06;102008.31;5071141;28;20029;-62
2023/09/14 06:59:37;;;;;;;5.60;3.10;;;;;;;23.96;47.83;102011.34;5070975;28;20036;-62
2023/09/14 07:02:02;;;;;;;4.57;2.65;;;;;;;24.13;47.52;102013.75;5070586;28;20021;-62
2023/09/14 07:04:28;;;;;;;4.47;2.60;;;;;;;24.31;47.56;102013.38;5072180;28;20033;-63
2023/09/14 07:06:54;;;;;;;5.03;2.67;;;;;;;24.47;47.63;102012.31;5070399;28;20405;-63
2023/09/14 07:09:19;;;;;;;6.82;3.00;;;;;;;24.66;47.11;102018.03;5070309;28;20028;-63
2023/09/14 07:11:45;;;;;;;6.30;2.78;;;;;;;24.83;47.11;102013.22;5071838;28;20054;-63
2023/09/14 07:14:11;;;;;;;4.95;2.85;;;;;;;25.02;47.19;102008.97;5071749;28;20104;-63
2023/09/14 07:16:37;;;;;;;6.90;3.65;;;;;;;25.21;46.63;102020.16;5070694;28;20032;-63
2023/09/14 07:19:03;;;;;;;6.70;4.10;;;;;;;25.39;46.50;102009.59;5070509;28;20044;-62
2023/09/14 07:21:32;;;;;;;6.57;3.63;;;;;;;25.58;46.60;102013.56;5071885;28;20028;-63
2023/09/14 07:23:58;;;;;;;6.93;3.25;;;;;;;25.75;46.52;102012.22;5072052;28;20056;-62
2023/09/14 07:26:24;;;;;;;7.30;3.55;;;;;;;25.94;46.26;102011.53;5071945;28;20067;-63
2023/09/14 07:28:49;;;;;;;10.10;3.63;;;;;;;26.16;46.25;102011.50;5071486;28;20133;-63
2023/09/14 07:31:14;;;;;;;6.63;3.70;;;;;;;26.35;46.18;102016.25;5070637;28;20036;-63
2023/09/14 07:33:40;;;;;;;7.07;4.25;;;;;;;26.54;45.50;102016.34;5071768;28;20526;-63
2023/09/14 07:36:05;;;;;;;11.10;3.97;;;;;;;26.74;45.31;102016.41;5071694;28;20037;-63
2023/09/14 07:38:30;;;;;;;10.05;4.72;;;;;;;26.97;45.27;102014.16;5069541;28;20036;-63
2023/09/14 07:40:57;;;;;;;6.53;3.85;;;;;;;27.18;45.31;102014.03;5053516;28;20115;-63
2023/09/14 07:43:24;;;;;;;7.82;4.22;;;;;;;27.34;45.04;102012.75;5070060;28;20028;-63
2023/09/14 07:45:50;;;;;;;8.82;4.53;;;;;;;27.55;44.90;102017.25;5069895;28;20530;-64
2023/09/14 07:48:15;;;;;;;9.38;5.07;;;;;;;27.76;44.98;102022.53;5063677;28;20075;-63
2023/09/14 07:50:41;;;;;;;9.13;4.57;;;;;;;27.97;44.75;102013.19;5050538;28;20107;-63
2023/09/14 07:53:07;;;;;;;7.85;4.63;;;;;;;28.17;44.64;102012.09;5051293;28;20039;-63
2023/09/14 07:55:32;;;;;;;8.90;4.40;;;;;;;28.39;44.03;102009.09;5062665;28;20515;-63
2023/09/14 07:57:58;;;;;;;8.68;4.72;;;;;;;28.56;43.43;102011.13;5072101;28;20055;-63
2023/09/14 08:00:24;;;;;;;11.43;5.18;;;;;;;28.69;43.45;102010.25;5070446;28;20500;-63
2023/09/14 08:02:49;;;;;;;9.90;5.88;;;;;;;28.89;43.27;102008.25;5075077;28;20032;-63
2023/09/14 08:05:14;;;;;;;11.95;5.63;;;;;;;29.15;42.90;102007.22;5074551;28;20036;-64
2023/09/14 08:07:40;;;;;;;10.70;5.30;;;;;;;29.41;42.58;102007.91;5074650;28;20087;-64
2023/09/14 08:10:06;;;;;;;10.73;5.50;;;;;;;29.69;42.76;102009.38;5074161;28;20135;-63
2023/09/14 08:12:31;;;;;;;13.73;5.70;;;;;;;29.88;42.51;102002.84;5074521;28;20135;-64
2023/09/14 08:14:57;;;;;;;8.73;5.68;;;;;;;30.06;42.63;102011.16;5073218;28;20482;-62
2023/09/14 08:17:22;;;;;;;11.65;6.15;;;;;;;30.16;41.81;102011.47;5073388;28;20048;-63
2023/09/14 08:19:47;;;;;;;14.07;7.00;;;;;;;30.29;41.78;102010.50;5073382;28;20033;-63
2023/09/14 08:22:14;;;;;;;15.48;6.53;;;;;;;30.43;41.65;102012.06;5073700;28;20126;-63
2023/09/14 08:24:40;;;;;;;13.48;6.78;;;;;;;30.55;41.44;102012.94;5074544;28;20029;-62
2023/09/14 08:27:05;;;;;;;10.35;6.65;;;;;;;30.68;41.34;102020.25;5056488;28;20511;-62
2023/09/14 08:29:31;;;;;;;14.75;6.88;;;;;;;30.80;40.93;102016.44;5073236;28;20049;-62
2023/09/14 08:31:56;;;;;;;16.88;7.53;;;;;;;30.87;40.82;102013.59;5073358;28;20459;-62
2023/09/14 08:34:21;;;;;;;17.33;8.88;;;;;;;30.88;40.72;102009.72;5072920;28;20043;-62
2023/09/14 08:36:47;;;;;;;16.15;8.45;;;;;;;30.89;40.45;102016.97;5073343;28;20032;-62
2023/09/14 08:39:12;;;;;;;16.02;8.10;;;;;;;30.90;40.75;102019.53;5073073;28;20032;-62
2023/09/14 08:41:40;;;;;;;12.90;7.25;;;;;;;30.98;40.17;102022.00;5074163;28;20032;-62
2023/09/14 08:44:07;;;;;;;14.30;8.30;;;;;;;31.05;40.31;102017.19;5073215;28;20064;-62
2023/09/14 08:46:34;;;;;;;16.27;7.68;;;;;;;31.17;40.36;102011.69;5072880;28;20036;-62
2023/09/14 08:48:59;;;;;;;15.25;8.43;;;;;;;31.28;39.54;102013.66;5072767;28;20035;-63
2023/09/14 08:51:27;;;;;;;16.48;8.50;;;;;;;31.36;39.83;102012.44;5072955;28;20036;-63
2023/09/14 08:53:53;;;;;;;15.07;8.95;;;;;;;31.50;39.96;102013.94;5072769;28;20059;-62
2023/09/14 08:56:19;;;;;;;14.00;8.35;;;;;;;31.63;38.89;102014.56;5041893;28;20450;-62
2023/09/14 08:58:45;;;;;;;15.38;8.93;;;;;;;31.76;38.72;102018.19;5035976;28;20048;-63
2023/09/14 09:01:12;;;;;;;15.63;7.13;;;;;;;31.89;38.51;102006.88;5052567;28;20056;-62
2023/09/14 09:03:39;;;;;;;19.52;9.18;;;;;;;31.85;38.32;102014.84;5053645;28;20037;-63
2023/09/14 09:06:04;;;;;;;14.38;8.30;;;;;;;32.07;38.95;102015.09;5052461;28;20041;-62
2023/09/14 09:08:30;;;;;;;17.63;8.13;;;;;;;32.07;38.84;102007.63;5066467;28;20055;-63
2023/09/14 09:10:56;;;;;;;11.68;7.40;;;;;;;32.26;38.31;102008.31;5072279;28;20488;-63
2023/09/14 09:13:22;;;;;;;17.55;8.80;;;;;;;32.39;37.93;102005.25;5072148;28;20032;-63
2023/09/14 09:15:48;;;;;;;12.05;7.45;;;;;;;32.52;37.60;102007.78;5072335;28;20495;-63
2023/09/14 09:18:13;;;;;;;15.50;7.45;;;;;;;32.49;37.65;102010.19;5072065;28;20036;-63
2023/09/14 09:20:40;;;;;;;15.80;8.55;;;;;;;32.67;37.61;102005.34;5055421;28;20048;-63
2023/09/14 09:23:06;;;;;;;14.65;7.95;;;;;;;32.79;36.89;102006.16;5073389;28;20044;-63
2023/09/14 09:25:43;;;;;;;16.33;8.10;;;;;;;33.05;36.90;102013.03;5073530;28;20079;-63
2023/09/14 09:28:08;;;;;;;12.93;7.75;;;;;;;33.29;35.94;102009.06;5072192;28;20082;-63
2023/09/14 09:30:35;;;;;;;12.20;7.82;;;;;;;33.52;36.40;102008.06;5071819;28;20041;-63
2023/09/14 09:33:01;;;;;;;11.98;6.75;;;;;;;33.77;35.23;102002.94;5073281;28;20039;-63
2023/09/14 09:35:31;;;;;;;15.60;8.00;;;;;;;33.96;35.17;102001.56;5071787;28;20108;-63
2023/09/14 09:38:12;;;;;;;14.57;8.23;;;;;;;34.25;35.41;102004.22;5073246;28;20447;-63
2023/09/14 09:40:41;;;;;;;17.27;8.07;;;;;;;34.56;34.49;102003.50;5072008;28;20032;-63
2023/09/14 09:43:07;;;;;;;13.98;8.70;;;;;;;34.63;34.84;102001.38;5071809;28;20453;-63
2023/09/14 09:45:33;;;;;;;14.57;8.23;;;;;;;33.77;35.47;102000.16;5071715;28;20044;-63
2023/09/14 09:48:00;;;;;;;15.45;9.02;;;;;;;33.16;36.46;102014.09;5072021;28;20404;-64
2023/09/14 09:50:27;;;;;;;14.57;8.77;;;;;;;32.64;36.05;101999.44;5071595;28;20097;-63
2023/09/14 09:52:52;;;;;;;14.55;8.85;;;;;;;32.74;36.03;101994.94;5071543;28;20028;-63
2023/09/14 09:55:25;;;;;;;13.52;8.27;;;;;;;32.69;35.56;101991.22;5071913;28;20441;-62
2023/09/14 09:57:59;;;;;;;17.70;9.18;;;;;;;32.27;36.40;101993.38;5072682;28;20012;-62
2023/09/14 10:00:34;;;;;;;15.32;8.15;;;;;;;31.89;36.30;101990.22;5055292;28;20123;-62
2023/09/14 10:03:01;;;;;;;13.85;6.75;;;;;;;32.07;36.05;101987.38;5058195;28;20032;-63
2023/09/14 10:05:31;;;;;;;13.57;6.10;;;;;;;31.78;36.73;101985.53;5072700;28;20024;-62
2023/09/14 10:07:58;;;;;;;14.07;7.85;;;;;;;31.54;36.65;101991.09;5054380;28;20120;-63
2023/09/14 10:10:29;;;;;;;13.30;6.97;;;;;;;31.44;36.42;101987.16;5071367;28;20385;-63
2023/09/14 10:12:55;;;;;;;17.30;7.18;;;;;;;31.25;36.79;101986.41;5071187;28;20032;-63
2023/09/14 10:15:21;;;;;;;12.40;6.53;;;;;;;31.08;37.21;101982.63;5071523;28;20032;-62
2023/09/14 10:17:51;;;;;;;10.43;6.20;;;;;;;31.52;36.06;101989.66;5071173;28;20040;-62
2023/09/14 10:20:16;;;;;;;10.18;4.70;;;;;;;31.44;36.02;101990.78;5071290;28;20059;-62
2023/09/14 10:22:43;;;;;;;8.30;5.10;;;;;;;31.26;36.61;101992.81;5072425;28;20052;-62
2023/09/14 10:25:09;;;;;;;9.63;5.28;;;;;;;31.50;35.87;101987.09;5071643;28;20416;-62
2023/09/14 10:27:34;;;;;;;11.50;4.88;;;;;;;31.32;36.55;101986.31;5072986;28;20040;-62
2023/09/14 10:30:04;;;;;;;7.05;4.68;;;;;;;31.21;35.97;101985.22;5072398;28;20036;-62
2023/09/14 10:32:29;;;;;;;7.35;3.97;;;;;;;31.54;36.39;101981.94;5072220;28;20411;-62
2023/09/14 10:34:58;;;;;;;9.40;4.32;;;;;;;32.87;33.85;101973.50;5070964;28;20113;-63
2023/09/14 10:37:23;;;;;;;13.10;5.00;;;;;;;33.47;33.86;101977.41;5071205;28;20036;-62
2023/09/14 10:39:50;;;;;;;8.18;4.80;;;;;;;34.36;33.19;101975.41;5071182;28;20035;-63
2023/09/14 10:42:15;;;;;;;7.15;4.68;;;;;;;33.93;33.82;101977.03;5054474;28;20028;-63
2023/09/14 10:44:41;;;;;;;8.57;5.80;;;;;;;33.43;34.25;101981.78;5071242;28;20029;-63
2023/09/14 10:47:06;;;;;;;8.30;5.78;;;;;;;33.80;34.17;101976.56;5071038;28;20036;-63
2023/09/14 10:49:34;;;;;;;12.82;5.75;;;;;;;33.39;34.40;101975.88;5070895;28;20036;-63
2023/09/14 10:52:00;;;;;;;7.13;4.85;;;;;;;33.68;33.44;101973.88;5070887;28;20033;-63
2023/09/14 10:54:26;;;;;;;11.95;5.53;;;;;;;33.24;33.83;101963.66;5070690;28;20090;-63
2023/09/14 10:56:59;;;;;;;8.30;5.28;;;;;;;32.80;34.38;101971.72;5070831;28;20124;-63
2023/09/14 10:59:50;;;;;;;7.45;4.97;;;;;;;32.44;34.06;101971.25;5070708;28;20068;-63
2023/09/14 11:02:37;;;;;;;10.57;5.20;;;;;;;32.20;35.19;101970.44;5070875;28;20505;-62
2023/09/14 11:05:46;;;;;;;10.98;6.15;;;;;;;32.28;34.23;101972.84;5071935;28;20084;-62
2023/09/14 11:08:12;;;;;;;9.52;5.75;;;;;;;31.99;34.81;101973.84;5038689;28;20044;-62
2023/09/14 11:10:38;;;;;;;9.60;5.72;;;;;;;31.78;35.44;101966.13;5072173;28;20029;-62
2023/09/14 11:13:19;;;;;;;9.65;5.72;;;;;;;31.54;36.03;101963.38;5070293;28;20503;-62
2023/09/14 11:15:46;;;;;;;14.20;4.53;;;;;;;31.50;35.22;101966.84;5072041;28;20116;-62
2023/09/14 11:18:20;;;;;;;8.88;5.07;;;;;;;31.34;35.26;101965.59;5071974;28;20028;-62
2023/09/14 11:20:46;;;;;;;13.90;5.40;;;;;;;31.21;36.13;101960.28;5054158;28;20515;-62